Time;durP1;ratioP1;P1;durP2;ratioP2;P2;SDS_P1;SDS_P2;PMS_P1;PMS_P2;Temp;Humidity;BMP_temperature;BMP_pressure;BME280_temperature;BME280_humidity;BME280_pressure;Samples;Min_cycle;Max_cycle;Signal;HPM_P1;HPM_P2
2023/07/29 00:00:49;;;;;;;6.90;4.18;;;;;;;18.49;100.00;100434.09;6228498;28;20049;-76
2023/07/29 00:03:50;;;;;;;5.00;3.40;;;;;;;18.46;100.00;100429.88;6227949;28;20065;-76
2023/07/29 00:06:52;;;;;;;6.20;4.35;;;;;;;18.45;100.00;100422.03;6258572;22;20369;-74
2023/07/29 00:09:53;;;;;;;4.32;3.03;;;;;;;18.46;100.00;100419.22;6271994;28;20053;-74
2023/07/29 00:12:55;;;;;;;4.40;3.13;;;;;;;18.41;100.00;100421.47;6252668;28;20060;-74
2023/07/29 00:15:57;;;;;;;4.63;3.45;;;;;;;18.37;100.00;100412.09;6235441;28;20061;-74
2023/07/29 00:18:59;;;;;;;5.55;2.83;;;;;;;18.39;100.00;100418.09;6228085;28;20049;-73
2023/07/29 00:22:00;;;;;;;5.65;3.08;;;;;;;18.40;100.00;100416.31;6227744;28;20053;-74
2023/07/29 00:25:02;;;;;;;4.93;3.45;;;;;;;18.37;100.00;100424.56;6227682;28;20053;-74
2023/07/29 00:28:03;;;;;;;5.85;3.88;;;;;;;18.38;100.00;100427.06;6227766;28;20049;-74
2023/07/29 00:31:06;;;;;;;5.28;3.88;;;;;;;18.42;100.00;100430.28;6227847;28;20442;-74
2023/07/29 00:34:07;;;;;;;6.93;3.08;;;;;;;18.43;100.00;100424.81;6227389;28;20050;-74
2023/07/29 00:37:10;;;;;;;7.25;4.03;;;;;;;18.40;100.00;100424.28;6227227;28;20056;-74
2023/07/29 00:40:16;;;;;;;5.57;3.40;;;;;;;18.41;100.00;100418.81;6227710;28;20133;-74
2023/07/29 00:43:18;;;;;;;5.88;3.58;;;;;;;18.40;100.00;100417.13;6227055;28;20050;-74
2023/07/29 00:46:21;;;;;;;8.40;4.07;;;;;;;18.41;100.00;100412.66;6227167;28;20354;-74
2023/07/29 00:49:22;;;;;;;4.60;3.00;;;;;;;18.43;100.00;100418.66;6227209;28;20093;-74
2023/07/29 00:52:24;;;;;;;6.15;3.53;;;;;;;18.44;100.00;100420.34;6240908;28;20048;-74
2023/07/29 00:55:25;;;;;;;4.45;2.90;;;;;;;18.45;100.00;100425.53;6273855;28;20052;-74
2023/07/29 00:58:27;;;;;;;5.75;3.78;;;;;;;18.46;100.00;100426.38;6276158;28;20072;-74
2023/07/29 01:01:30;;;;;;;6.75;3.97;;;;;;;18.46;100.00;100429.88;6276074;28;20369;-74
2023/07/29 01:04:31;;;;;;;4.68;3.30;;;;;;;18.50;100.00;100431.28;6276045;28;20084;-74
2023/07/29 01:07:40;;;;;;;6.85;3.45;;;;;;;18.51;100.00;100430.28;6275906;28;20056;-74
2023/07/29 01:10:52;;;;;;;5.85;3.58;;;;;;;18.52;100.00;100423.13;6276251;28;20055;-74
2023/07/29 01:13:59;;;;;;;4.03;3.00;;;;;;;18.54;100.00;100423.84;6275746;28;20045;-74
2023/07/29 01:17:07;;;;;;;5.32;3.63;;;;;;;18.51;100.00;100411.66;6276067;28;20052;-74
2023/07/29 01:20:12;;;;;;;6.80;3.35;;;;;;;18.50;100.00;100407.31;6275833;28;20074;-74
2023/07/29 01:23:13;;;;;;;4.93;3.38;;;;;;;18.51;100.00;100406.34;6275667;28;20048;-74
2023/07/29 01:26:16;;;;;;;6.85;3.80;;;;;;;18.49;100.00;100410.13;6275651;28;20049;-74
2023/07/29 01:29:17;;;;;;;5.70;3.25;;;;;;;18.54;100.00;100409.72;6275626;28;20049;-74
2023/07/29 01:32:26;;;;;;;5.00;3.03;;;;;;;18.49;100.00;100405.66;6272663;28;20071;-74
2023/07/29 01:35:33;;;;;;;4.67;3.40;;;;;;;18.47;100.00;100418.22;6275179;28;20082;-74
2023/07/29 01:38:37;;;;;;;4.72;3.13;;;;;;;18.48;100.00;100405.75;6275459;28;20190;-74
2023/07/29 01:41:41;;;;;;;4.00;1.95;;;;;;;18.50;100.00;100401.16;6275366;28;20143;-74
2023/07/29 01:44:43;;;;;;;3.92;2.47;;;;;;;18.48;100.00;100401.28;6275389;28;20095;-74
2023/07/29 01:47:44;;;;;;;4.15;2.92;;;;;;;18.46;100.00;100399.75;6275294;28;20045;-74
2023/07/29 01:50:46;;;;;;;2.50;2.30;;;;;;;18.46;100.00;100394.44;6275609;28;20052;-74
2023/07/29 01:53:48;;;;;;;4.38;2.92;;;;;;;18.41;100.00;100404.66;6275362;28;20053;-74
2023/07/29 01:56:51;;;;;;;3.88;2.45;;;;;;;18.41;100.00;100397.53;6275255;28;20041;-74
2023/07/29 01:59:52;;;;;;;4.32;2.72;;;;;;;18.45;100.00;100398.09;6275173;28;20352;-74
2023/07/29 02:02:53;;;;;;;3.38;2.70;;;;;;;18.42;100.00;100398.34;6275330;28;20134;-74
2023/07/29 02:05:55;;;;;;;4.50;2.60;;;;;;;18.41;100.00;100400.19;6279289;28;20151;-74
2023/07/29 02:08:57;;;;;;;4.35;2.53;;;;;;;18.36;100.00;100381.16;6280501;28;20049;-74
2023/07/29 02:11:59;;;;;;;4.00;2.50;;;;;;;18.33;100.00;100389.41;6280251;28;20150;-74
2023/07/29 02:15:01;;;;;;;2.63;2.03;;;;;;;18.32;100.00;100384.22;6279787;28;20056;-74
2023/07/29 02:18:03;;;;;;;4.45;2.75;;;;;;;18.32;100.00;100385.06;6279898;28;20361;-74
2023/07/29 02:21:04;;;;;;;2.63;2.13;;;;;;;18.32;100.00;100385.06;6280208;28;20053;-74
2023/07/29 02:24:06;;;;;;;2.55;2.00;;;;;;;18.30;100.00;100381.69;6279716;28;20498;-74
2023/07/29 02:27:09;;;;;;;2.47;1.83;;;;;;;18.31;100.00;100385.22;6279747;28;20045;-74
2023/07/29 02:30:12;;;;;;;5.22;2.58;;;;;;;18.29;100.00;100385.34;6279976;28;20044;-74
2023/07/29 02:33:13;;;;;;;2.60;2.10;;;;;;;18.30;100.00;100383.50;6279898;28;20056;-74
2023/07/29 02:36:15;;;;;;;4.32;2.47;;;;;;;18.31;100.00;100379.91;6279527;28;20472;-74
2023/07/29 02:39:16;;;;;;;2.88;2.13;;;;;;;18.31;100.00;100386.06;6279518;28;20056;-74
2023/07/29 02:42:19;;;;;;;4.40;2.80;;;;;;;18.30;100.00;100386.16;6278521;28;20123;-74
2023/07/29 02:45:21;;;;;;;3.08;1.90;;;;;;;18.30;100.00;100378.19;6279661;28;20052;-74
2023/07/29 02:48:22;;;;;;;2.40;1.80;;;;;;;18.28;100.00;100375.69;6279345;28;20049;-74
2023/07/29 02:51:23;;;;;;;4.28;2.22;;;;;;;18.25;100.00;100382.09;6279177;28;20056;-74
2023/07/29 02:54:25;;;;;;;4.55;2.03;;;;;;;18.22;100.00;100386.91;6275997;28;20063;-74
2023/07/29 02:57:27;;;;;;;3.97;2.65;;;;;;;18.20;100.00;100381.69;6279159;28;20060;-74
2023/07/29 03:00:32;;;;;;;3.88;2.10;;;;;;;18.16;100.00;100384.78;6278147;28;20051;-74
2023/07/29 03:03:34;;;;;;;3.13;2.40;;;;;;;18.11;100.00;100376.38;6277758;28;20053;-74
2023/07/29 03:06:35;;;;;;;3.75;2.42;;;;;;;18.08;100.00;100371.34;6278823;28;20056;-74
2023/07/29 03:09:37;;;;;;;3.17;2.28;;;;;;;18.05;100.00;100374.28;6278930;28;20056;-74
2023/07/29 03:12:40;;;;;;;3.83;2.63;;;;;;;18.02;100.00;100372.72;6276681;28;20059;-74
2023/07/29 03:15:41;;;;;;;2.60;1.42;;;;;;;18.02;100.00;100379.88;6277848;28;20056;-74
2023/07/29 03:18:44;;;;;;;4.30;2.35;;;;;;;18.01;100.00;100376.38;6278665;28;20044;-74
2023/07/29 03:21:45;;;;;;;2.80;2.28;;;;;;;18.00;100.00;100378.19;6278739;28;20053;-74
2023/07/29 03:24:47;;;;;;;2.90;2.03;;;;;;;18.00;100.00;100374.69;6278560;28;20140;-74
2023/07/29 03:27:50;;;;;;;4.20;2.10;;;;;;;18.02;100.00;100363.91;6278418;28;20052;-74
2023/07/29 03:30:52;;;;;;;5.47;2.20;;;;;;;17.98;100.00;100372.16;6278334;28;20064;-74
2023/07/29 03:33:53;;;;;;;3.47;2.17;;;;;;;17.97;100.00;100364.34;6278309;28;20070;-74
2023/07/29 03:36:54;;;;;;;4.80;2.72;;;;;;;17.95;100.00;100366.31;6278333;28;20049;-74
2023/07/29 03:39:56;;;;;;;2.92;2.15;;;;;;;17.93;100.00;100361.09;6278122;28;20060;-74
2023/07/29 03:42:58;;;;;;;3.67;2.45;;;;;;;17.94;100.00;100357.50;6277098;28;20048;-74
2023/07/29 03:46:01;;;;;;;3.65;2.28;;;;;;;17.94;100.00;100364.59;6263620;28;20060;-74
2023/07/29 03:49:03;;;;;;;3.70;2.10;;;;;;;17.92;100.00;100364.75;6278067;28;20349;-74
2023/07/29 03:52:05;;;;;;;2.47;1.85;;;;;;;17.91;100.00;100362.25;6275406;28;20052;-74
2023/07/29 03:55:07;;;;;;;3.80;2.47;;;;;;;17.92;100.00;100363.91;6277428;28;20475;-74
2023/07/29 03:58:10;;;;;;;5.43;2.85;;;;;;;17.89;100.00;100373.00;6277828;28;20461;-74
2023/07/29 04:01:12;;;;;;;2.55;2.00;;;;;;;17.91;100.00;100372.88;6277449;28;20045;-74
2023/07/29 04:04:13;;;;;;;3.78;2.20;;;;;;;17.89;100.00;100367.66;6277440;28;20049;-75
2023/07/29 04:07:15;;;;;;;3.05;2.00;;;;;;;17.89;100.00;100373.00;6277558;28;20075;-74
2023/07/29 04:10:16;;;;;;;2.58;1.70;;;;;;;17.88;100.00;100367.81;6277663;28;20132;-74
2023/07/29 04:13:19;;;;;;;3.17;1.83;;;;;;;17.86;100.00;100361.81;6277089;28;20056;-74
2023/07/29 04:16:21;;;;;;;2.55;1.70;;;;;;;17.85;100.00;100352.13;6277373;28;20438;-74
2023/07/29 04:19:22;;;;;;;4.95;1.95;;;;;;;17.85;100.00;100353.00;6277437;28;20056;-74
2023/07/29 04:22:24;;;;;;;2.72;2.22;;;;;;;17.87;100.00;100355.50;6276979;28;20076;-74
2023/07/29 04:25:25;;;;;;;2.30;2.00;;;;;;;17.85;100.00;100352.13;6277016;28;20056;-74
2023/07/29 04:28:28;;;;;;;2.47;1.90;;;;;;;17.87;100.00;100355.50;6276561;28;20057;-74
2023/07/29 04:31:30;;;;;;;3.00;1.88;;;;;;;17.86;100.00;100364.47;6277005;28;20122;-74
2023/07/29 04:34:31;;;;;;;2.25;1.85;;;;;;;17.87;100.00;100363.50;6276601;28;20064;-74
2023/07/29 04:37:33;;;;;;;2.10;1.42;;;;;;;17.90;100.00;100361.41;6276846;28;20452;-74
2023/07/29 04:40:34;;;;;;;2.72;1.85;;;;;;;17.91;100.00;100356.91;6276605;28;20349;-74
2023/07/29 04:43:37;;;;;;;2.50;1.60;;;;;;;17.93;100.00;100355.78;6276643;28;20063;-74
2023/07/29 04:46:39;;;;;;;2.47;1.60;;;;;;;17.95;100.00;100348.53;6267719;28;20045;-74
2023/07/29 04:49:40;;;;;;;3.78;2.10;;;;;;;17.95;100.00;100348.53;6235263;28;20141;-74
2023/07/29 04:52:42;;;;;;;2.63;1.77;;;;;;;17.96;100.00;100350.19;6239616;28;20050;-74
2023/07/29 04:55:44;;;;;;;2.45;1.85;;;;;;;17.97;100.00;100348.38;6254914;28;20044;-74
2023/07/29 04:58:47;;;;;;;2.13;1.80;;;;;;;18.00;100.00;100345.44;6272552;28;20045;-74
2023/07/29 05:01:48;;;;;;;3.20;2.08;;;;;;;18.01;100.00;100352.44;6276127;28;20056;-74
2023/07/29 05:04:49;;;;;;;2.25;1.70;;;;;;;18.05;100.00;100350.34;6243463;28;20462;-74
2023/07/29 05:07:51;;;;;;;2.25;1.83;;;;;;;18.06;100.00;100346.69;6242086;28;20053;-74
2023/07/29 05:10:53;;;;;;;2.78;1.70;;;;;;;18.08;100.00;100336.78;6234808;28;20050;-74
2023/07/29 05:13:56;;;;;;;2.40;1.70;;;;;;;18.08;100.00;100329.66;6226437;28;20052;-74
2023/07/29 05:16:58;;;;;;;1.98;1.67;;;;;;;18.11;100.00;100326.69;6226772;28;20050;-74
2023/07/29 05:20:00;;;;;;;2.05;1.42;;;;;;;18.14;100.00;100315.78;6226506;28;20050;-74
2023/07/29 05:23:01;;;;;;;6.72;2.65;;;;;;;18.18;100.00;100316.34;6226423;28;20050;-74
2023/07/29 05:26:03;;;;;;;2.50;1.60;;;;;;;18.20;100.00;100322.34;6226415;28;20401;-74
2023/07/29 05:29:06;;;;;;;4.68;2.72;;;;;;;18.22;100.00;100323.91;6226569;28;20049;-74
2023/07/29 05:32:08;;;;;;;5.50;2.60;;;;;;;18.27;100.00;100322.63;6241609;28;20065;-72
2023/07/29 05:35:10;;;;;;;3.75;2.75;;;;;;;18.30;100.00;100317.00;6265310;28;20049;-73
2023/07/29 05:38:11;;;;;;;3.28;2.60;;;;;;;18.29;100.00;100324.16;6275038;28;20349;-73
2023/07/29 05:41:12;;;;;;;4.10;2.78;;;;;;;18.32;100.00;100313.22;6275234;28;20345;-73
2023/07/29 05:44:15;;;;;;;3.50;2.20;;;;;;;18.31;100.00;100316.88;6275140;28;20087;-72
2023/07/29 05:47:16;;;;;;;3.38;2.13;;;;;;;18.36;100.00;100311.13;6275252;28;20049;-72
2023/07/29 05:50:18;;;;;;;2.53;2.10;;;;;;;18.37;100.00;100318.13;6246618;28;20057;-72
2023/07/29 05:53:19;;;;;;;3.72;2.38;;;;;;;18.37;100.00;100316.31;6257153;28;20040;-72
2023/07/29 05:56:21;;;;;;;4.82;2.85;;;;;;;18.41;100.00;100322.19;6275354;28;20049;-73
2023/07/29 05:59:24;;;;;;;4.07;2.38;;;;;;;18.41;100.00;100320.38;6275192;28;20433;-73
2023/07/29 06:02:25;;;;;;;5.03;2.78;;;;;;;18.43;100.00;100317.53;6274991;28;20433;-73
2023/07/29 06:05:26;;;;;;;7.15;2.60;;;;;;;18.43;100.00;100321.03;6271982;28;20049;-72
2023/07/29 06:08:29;;;;;;;3.00;2.30;;;;;;;18.46;100.00;100333.25;6233803;28;20049;-72
2023/07/29 06:11:30;;;;;;;3.28;2.30;;;;;;;18.47;100.00;100334.91;6236722;28;20049;-74
2023/07/29 06:14:33;;;;;;;3.28;2.28;;;;;;;18.46;100.00;100339.41;6238796;28;20072;-74
2023/07/29 06:17:34;;;;;;;3.10;2.40;;;;;;;18.46;100.00;100335.91;6238196;28;20042;-74
2023/07/29 06:20:36;;;;;;;3.55;2.17;;;;;;;18.46;100.00;100331.41;6236696;28;20052;-74
2023/07/29 06:23:37;;;;;;;3.35;2.30;;;;;;;18.46;100.00;100331.41;6238091;28;20350;-74
2023/07/29 06:26:39;;;;;;;4.45;2.63;;;;;;;18.47;100.00;100326.94;6231777;28;20076;-75
2023/07/29 06:29:41;;;;;;;2.78;2.00;;;;;;;18.47;100.00;100330.41;6225872;28;20050;-74
2023/07/29 06:32:43;;;;;;;4.13;2.92;;;;;;;18.46;100.00;100333.25;6225588;28;20042;-74
2023/07/29 06:35:44;;;;;;;4.35;2.95;;;;;;;18.50;100.00;100330.16;6225435;28;20053;-74
2023/07/29 06:38:45;;;;;;;4.97;3.45;;;;;;;18.54;100.00;100337.84;6225612;28;20053;-74
2023/07/29 06:41:47;;;;;;;4.50;3.10;;;;;;;18.56;100.00;100342.03;6225498;28;20061;-74
2023/07/29 06:44:49;;;;;;;5.63;3.47;;;;;;;18.60;100.00;100343.44;6225559;28;20050;-74
2023/07/29 06:47:51;;;;;;;5.40;3.13;;;;;;;18.58;100.00;100341.91;6225407;28;20576;-74
2023/07/29 06:50:52;;;;;;;6.65;4.30;;;;;;;18.54;100.00;100346.69;6227606;28;20358;-74
2023/07/29 06:53:54;;;;;;;7.22;4.13;;;;;;;18.59;100.00;100339.09;6246390;28;20057;-74
2023/07/29 06:56:55;;;;;;;6.60;4.13;;;;;;;18.58;100.00;100332.09;6279272;28;20053;-74
2023/07/29 06:59:58;;;;;;;6.80;4.03;;;;;;;18.60;100.00;100340.78;6279383;28;20056;-74
2023/07/29 07:02:59;;;;;;;9.60;4.93;;;;;;;18.62;100.00;100351.25;6258647;28;20053;-74
2023/07/29 07:06:01;;;;;;;12.43;6.00;;;;;;;18.61;100.00;100350.44;6272486;28;20056;-74
2023/07/29 07:09:02;;;;;;;9.00;4.90;;;;;;;18.69;100.00;100345.25;6279162;28;20047;-74
2023/07/29 07:12:04;;;;;;;8.43;5.53;;;;;;;18.74;100.00;100350.16;6279009;28;20049;-74
2023/07/29 07:15:08;;;;;;;9.55;5.93;;;;;;;18.77;100.00;100341.88;6278609;28;20052;-74
2023/07/29 07:18:10;;;;;;;10.77;6.03;;;;;;;18.78;100.00;100348.06;6278965;28;20049;-76
2023/07/29 07:21:11;;;;;;;11.40;5.65;;;;;;;18.85;100.00;100342.00;6278702;28;20349;-75
2023/07/29 07:24:13;;;;;;;9.27;5.50;;;;;;;18.91;100.00;100329.94;6278795;28;20045;-74
2023/07/29 07:27:14;;;;;;;13.00;5.40;;;;;;;18.94;100.00;100338.47;6278471;28;20045;-73
2023/07/29 07:30:17;;;;;;;7.28;4.65;;;;;;;18.97;100.00;100338.16;6278882;28;20045;-73
2023/07/29 07:33:18;;;;;;;8.48;5.35;;;;;;;19.05;100.00;100341.94;6263656;28;20052;-74
2023/07/29 07:36:20;;;;;;;10.98;6.30;;;;;;;19.10;100.00;100342.34;6273731;28;20057;-74
2023/07/29 07:39:21;;;;;;;10.32;6.60;;;;;;;19.12;100.00;100341.22;6277700;28;20345;-75
2023/07/29 07:42:23;;;;;;;12.10;6.35;;;;;;;19.13;100.00;100344.72;6270319;28;20346;-74
2023/07/29 07:45:25;;;;;;;10.30;6.72;;;;;;;19.12;100.00;100327.91;6278150;28;20053;-76
2023/07/29 07:48:27;;;;;;;12.07;6.57;;;;;;;19.26;100.00;100343.38;6276993;28;20041;-74
2023/07/29 07:51:28;;;;;;;13.68;7.60;;;;;;;19.18;100.00;100356.59;6269580;28;20047;-74
2023/07/29 07:54:30;;;;;;;9.93;6.85;;;;;;;19.17;100.00;100349.59;6277515;28;20072;-74
2023/07/29 07:57:31;;;;;;;10.80;7.25;;;;;;;19.17;100.00;100346.94;6277945;28;20053;-75
2023/07/29 08:00:34;;;;;;;11.00;7.78;;;;;;;19.16;100.00;100344.41;6277626;28;20041;-74
2023/07/29 08:03:35;;;;;;;11.88;8.18;;;;;;;19.13;100.00;100350.03;6276624;28;20045;-74
2023/07/29 08:06:37;;;;;;;11.48;7.35;;;;;;;19.16;100.00;100345.22;6277453;28;20049;-75
2023/07/29 08:09:39;;;;;;;12.38;8.23;;;;;;;19.22;100.00;100338.50;6264997;28;20350;-75
2023/07/29 08:12:40;;;;;;;11.13;6.68;;;;;;;19.18;100.00;100335.28;6236607;28;20076;-74
2023/07/29 08:15:47;;;;;;;12.65;7.97;;;;;;;19.26;100.00;100329.22;6255720;28;20052;-75
2023/07/29 08:18:48;;;;;;;15.38;7.25;;;;;;;19.22;100.00;100330.50;6257183;28;20056;-75
2023/07/29 08:21:55;;;;;;;11.85;8.25;;;;;;;19.21;100.00;100321.69;6267359;28;20053;-75
2023/07/29 08:25:00;;;;;;;14.02;8.75;;;;;;;19.24;100.00;100321.38;6277154;28;20446;-74
2023/07/29 08:28:05;;;;;;;15.50;8.95;;;;;;;19.26;100.00;100314.06;6275871;28;20049;-74
2023/07/29 08:31:07;;;;;;;14.35;8.50;;;;;;;19.30;100.00;100337.75;6256775;28;20053;-74
2023/07/29 08:34:10;;;;;;;16.33;9.38;;;;;;;19.29;100.00;100339.56;6250999;28;20056;-74
2023/07/29 08:37:32;;;;;;;14.85;8.98;;;;;;;19.30;100.00;100346.56;6265889;28;20055;-74
2023/07/29 08:40:36;;;;;;;15.07;9.18;;;;;;;19.25;100.00;100347.00;6255888;28;20172;-73
2023/07/29 08:44:19;;;;;;;15.57;9.02;;;;;;;19.27;100.00;100339.72;6267485;28;20099;-72
2023/07/29 08:47:47;;;;;;;15.45;9.38;;;;;;;19.29;100.00;100347.56;6258463;28;20044;-74
2023/07/29 08:58:39;;;;;;;15.38;9.75;;;;;;;19.39;100.00;100324.34;6249901;28;20052;-75
2023/07/29 09:05:43;;;;;;;15.30;9.82;;;;;;;19.44;100.00;100311.44;6265438;28;20052;-75
2023/07/29 09:08:49;;;;;;;16.35;9.45;;;;;;;19.62;100.00;100307.97;6276557;28;20073;-75
2023/07/29 09:11:51;;;;;;;14.00;8.80;;;;;;;19.73;100.00;100313.94;6259769;28;20053;-75
2023/07/29 09:14:52;;;;;;;13.13;8.40;;;;;;;19.79;100.00;100309.00;6275818;28;20049;-76
2023/07/29 09:17:55;;;;;;;16.00;9.20;;;;;;;19.85;100.00;100303.91;6276024;28;20462;-76
2023/07/29 09:21:00;;;;;;;14.02;8.35;;;;;;;19.86;100.00;100294.91;6267468;28;20136;-77
2023/07/29 09:24:04;;;;;;;11.52;7.15;;;;;;;19.85;100.00;100306.56;6253820;28;20049;-76
2023/07/29 09:27:07;;;;;;;13.50;7.38;;;;;;;19.90;100.00;100324.78;6269413;28;20456;-76
2023/07/29 09:30:16;;;;;;;11.52;7.38;;;;;;;19.69;100.00;100328.56;6273206;28;20044;-76
2023/07/29 09:33:18;;;;;;;12.63;5.47;;;;;;;19.21;100.00;100320.81;6261296;28;20052;-79
2023/07/29 09:36:22;;;;;;;9.18;5.60;;;;;;;18.87;100.00;100312.56;6275532;28;20056;-79
2023/07/29 09:39:24;;;;;;;9.60;5.18;;;;;;;18.77;100.00;100311.78;6272637;28;20045;-77
2023/07/29 09:42:25;;;;;;;12.10;5.90;;;;;;;18.65;100.00;100317.22;6275262;28;20080;-77
2023/07/29 09:45:28;;;;;;;10.88;6.97;;;;;;;18.55;100.00;100331.53;6238581;28;20049;-77
2023/07/29 09:48:33;;;;;;;10.50;6.95;;;;;;;18.53;100.00;100334.34;6236868;28;20135;-77
2023/07/29 09:51:40;;;;;;;17.92;7.90;;;;;;;18.57;100.00;100350.84;6237515;28;20045;-80
2023/07/29 09:54:43;;;;;;;13.23;8.07;;;;;;;18.60;100.00;100339.94;6243523;28;20046;-80
2023/07/29 09:57:45;;;;;;;15.55;9.07;;;;;;;18.64;100.00;100336.84;6240672;28;20054;-82
2023/07/29 10:00:48;;;;;;;17.42;9.00;;;;;;;18.71;100.00;100340.66;6236977;28;20042;-80
2023/07/29 10:03:50;;;;;;;16.33;8.85;;;;;;;18.86;100.00;100334.84;6237257;28;20041;-80
2023/07/29 10:06:53;;;;;;;19.60;10.45;;;;;;;18.97;100.00;100329.34;6246427;28;20065;-80
2023/07/29 10:09:56;;;;;;;18.60;10.18;;;;;;;18.99;100.00;100322.06;6250598;28;20046;-79
2023/07/29 10:12:58;;;;;;;15.25;9.32;;;;;;;18.98;100.00;100323.03;6267357;28;20326;-78
2023/07/29 10:16:02;;;;;;;18.90;9.38;;;;;;;19.08;100.00;100320.34;6275107;28;20056;-79
2023/07/29 10:19:05;;;;;;;17.92;10.77;;;;;;;19.08;100.00;100331.84;6275235;28;20041;-79
2023/07/29 10:22:08;;;;;;;18.85;10.93;;;;;;;19.02;100.00;100335.91;6274745;28;20162;-80
2023/07/29 10:25:14;;;;;;;19.15;11.10;;;;;;;19.08;100.00;100321.19;6276074;28;20045;-79
2023/07/29 10:28:16;;;;;;;20.15;11.02;;;;;;;19.18;100.00;100327.28;6251943;28;20342;-78
2023/07/29 10:31:18;;;;;;;20.05;11.27;;;;;;;19.20;100.00;100329.78;6238804;28;20137;-79
2023/07/29 10:34:21;;;;;;;15.73;10.50;;;;;;;19.09;100.00;100324.69;6243110;28;20443;-80
2023/07/29 10:37:24;;;;;;;15.63;10.48;;;;;;;19.13;100.00;100326.06;6254677;28;20452;-79
2023/07/29 10:40:26;;;;;;;16.35;9.73;;;;;;;19.15;100.00;100322.25;6254955;28;20041;-78
2023/07/29 10:43:33;;;;;;;17.48;9.73;;;;;;;19.42;100.00;100318.75;6254522;28;20049;-78
2023/07/29 10:46:36;;;;;;;14.43;8.93;;;;;;;19.48;100.00;100322.63;6254930;28;20053;-79
2023/07/29 10:49:37;;;;;;;10.77;7.05;;;;;;;19.40;100.00;100315.41;6254701;28;20049;-78
2023/07/29 10:52:42;;;;;;;8.55;5.90;;;;;;;19.36;100.00;100319.34;6254524;28;20060;-78
2023/07/29 10:55:45;;;;;;;10.63;6.00;;;;;;;19.36;100.00;100321.19;6254380;28;20138;-79
2023/07/29 10:58:46;;;;;;;5.55;4.30;;;;;;;19.30;100.00;100322.59;6254771;28;20054;-78
2023/07/29 11:01:52;;;;;;;7.72;4.70;;;;;;;19.28;100.00;100332.56;6253772;28;20052;-78
2023/07/29 11:04:54;;;;;;;5.72;4.13;;;;;;;19.23;100.00;100330.34;6268363;28;20072;-81
2023/07/29 11:07:56;;;;;;;7.13;4.15;;;;;;;19.43;100.00;100319.56;6278756;28;20359;-79
2023/07/29 11:11:06;;;;;;;5.38;4.03;;;;;;;19.60;100.00;100328.59;6278984;28;20044;-77
2023/07/29 11:14:08;;;;;;;;;;;;;;;19.78;100.00;100326.81;6279230;28;20049;-79
2023/07/29 11:17:10;;;;;;;1.67;1.38;;;;;;;19.82;100.00;100333.53;6279105;28;19920;-79
2023/07/29 11:20:13;;;;;;;1.38;1.27;;;;;;;20.02;100.00;100328.88;6278900;28;20045;-79
2023/07/29 11:23:16;;;;;;;1.20;0.82;;;;;;;20.04;100.00;100332.25;6276901;28;20045;-77
2023/07/29 11:26:17;;;;;;;1.60;0.80;;;;;;;19.89;100.00;100344.41;6278539;28;20361;-77
2023/07/29 11:29:18;;;;;;;1.02;0.90;;;;;;;19.91;100.00;100337.94;6278563;28;20049;-77
2023/07/29 11:32:20;;;;;;;0.70;0.70;;;;;;;20.12;100.00;100342.13;6278524;28;20083;-80
2023/07/29 11:35:22;;;;;;;0.90;0.57;;;;;;;20.52;100.00;100333.63;6278173;28;20052;-80
2023/07/29 11:38:25;;;;;;;1.23;0.70;;;;;;;20.64;100.00;100335.06;6277301;28;20056;-78
2023/07/29 11:41:26;;;;;;;0.77;0.60;;;;;;;20.58;100.00;100340.22;6278134;28;20460;-78
2023/07/29 11:44:28;;;;;;;0.80;0.57;;;;;;;20.50;100.00;100338.31;6277971;28;20326;-77
2023/07/29 11:47:29;;;;;;;1.45;0.77;;;;;;;20.31;100.00;100341.97;6278009;28;20071;-78
2023/07/29 11:50:31;;;;;;;0.80;0.70;;;;;;;20.28;100.00;100342.28;6278254;28;20055;-76
2023/07/29 11:53:33;;;;;;;1.58;0.88;;;;;;;20.44;100.00;100341.59;6277875;28;20049;-76
2023/07/29 11:56:35;;;;;;;0.73;0.60;;;;;;;20.79;100.00;100343.34;6277866;28;20059;-77
2023/07/29 11:59:38;;;;;;;1.05;0.80;;;;;;;21.08;100.00;100336.81;6277941;28;20052;-78
2023/07/29 12:02:41;;;;;;;0.85;0.70;;;;;;;21.20;100.00;100338.19;6258112;28;20045;-78
2023/07/29 12:05:43;;;;;;;0.73;0.60;;;;;;;21.10;100.00;100337.50;6265115;28;20048;-77
2023/07/29 12:08:46;;;;;;;1.05;0.65;;;;;;;21.14;100.00;100341.53;6275558;28;20049;-77
2023/07/29 12:11:47;;;;;;;0.50;0.50;;;;;;;21.13;100.00;100340.69;6276378;28;20052;-78
2023/07/29 12:14:49;;;;;;;0.60;0.50;;;;;;;21.15;100.00;100345.88;6275446;28;20049;-75
2023/07/29 12:17:54;;;;;;;1.63;0.85;;;;;;;20.92;100.00;100346.41;6276214;28;20056;-75
2023/07/29 12:20:56;;;;;;;1.20;0.80;;;;;;;21.05;100.00;100335.31;6276900;28;20045;-76
2023/07/29 12:23:59;;;;;;;0.80;0.80;;;;;;;21.52;100.00;100343.69;6277260;28;20045;-73
2023/07/29 12:27:00;;;;;;;1.00;0.90;;;;;;;21.59;100.00;100338.53;6277158;28;20077;-73
2023/07/29 12:30:03;;;;;;;1.42;0.70;;;;;;;21.61;100.00;100341.88;6277495;28;20052;-73
2023/07/29 12:33:06;;;;;;;1.00;0.70;;;;;;;21.71;100.00;100339.91;6276858;28;20061;-74
2023/07/29 12:36:07;;;;;;;1.70;1.00;;;;;;;21.55;100.00;100339.03;6276724;28;20572;-73
2023/07/29 12:39:18;;;;;;;1.17;0.90;;;;;;;21.47;100.00;100338.00;6276999;28;20434;-74
2023/07/29 12:42:19;;;;;;;1.35;0.60;;;;;;;21.71;100.00;100339.91;6276555;28;20041;-73
2023/07/29 12:45:22;;;;;;;1.08;0.73;;;;;;;22.08;100.00;100345.81;6276804;28;20049;-73
2023/07/29 12:48:24;;;;;;;1.17;1.02;;;;;;;22.15;100.00;100336.16;6276127;28;20049;-72
2023/07/29 12:51:25;;;;;;;1.02;0.70;;;;;;;22.07;100.00;100333.44;6268183;28;20044;-74
2023/07/29 12:54:28;;;;;;;0.90;0.80;;;;;;;21.93;100.00;100332.25;6270881;28;20052;-74
2023/07/29 12:57:29;;;;;;;0.93;0.60;;;;;;;21.70;100.00;100324.84;6271030;28;20049;-74
2023/07/29 13:00:31;;;;;;;1.23;0.82;;;;;;;21.83;100.00;100320.88;6267932;28;20041;-74
2023/07/29 13:03:32;;;;;;;1.08;0.75;;;;;;;22.00;100.00;100318.03;6276109;28;20362;-73
2023/07/29 13:06:34;;;;;;;3.10;0.60;;;;;;;21.91;100.00;100324.41;6276082;28;20049;-73
2023/07/29 13:09:36;;;;;;;0.80;0.75;;;;;;;21.69;100.00;100317.00;6276057;28;20048;-73
2023/07/29 13:12:38;;;;;;;1.17;0.85;;;;;;;21.48;100.00;100320.97;6269334;28;20056;-74
2023/07/29 13:15:39;;;;;;;2.38;0.75;;;;;;;21.55;100.00;100325.66;6273302;28;20048;-74
2023/07/29 13:18:41;;;;;;;2.63;1.02;;;;;;;21.47;100.00;100324.63;6276200;28;20056;-73
2023/07/29 13:21:42;;;;;;;0.88;0.70;;;;;;;21.61;100.00;100322.31;6271162;28;20041;-73
2023/07/29 13:24:45;;;;;;;1.52;0.85;;;;;;;21.73;100.00;100326.38;6275732;28;20049;-73
2023/07/29 13:27:46;;;;;;;1.77;0.75;;;;;;;22.22;100.00;100327.28;6275678;28;20041;-73
2023/07/29 13:30:47;;;;;;;1.50;0.77;;;;;;;22.54;100.00;100323.75;6270960;28;20040;-74
2023/07/29 13:33:49;;;;;;;0.90;0.65;;;;;;;22.71;100.00;100324.56;6275244;28;20056;-73
2023/07/29 13:36:50;;;;;;;0.45;0.45;;;;;;;23.13;100.00;100314.56;6275724;28;20053;-73
2023/07/29 13:39:53;;;;;;;0.57;0.57;;;;;;;23.26;100.00;100313.00;6275613;28;20057;-73
2023/07/29 13:42:54;;;;;;;3.03;1.63;;;;;;;23.23;100.00;100318.72;6275278;28;20059;-73
2023/07/29 13:45:56;;;;;;;1.95;0.68;;;;;;;22.91;100.00;100319.66;6275601;28;20051;-73
2023/07/29 13:48:57;;;;;;;1.10;0.82;;;;;;;22.68;100.00;100324.06;6275591;28;20053;-73
2023/07/29 13:51:58;;;;;;;2.05;0.65;;;;;;;22.57;100.00;100322.56;6272706;28;20052;-73
2023/07/29 13:55:01;;;;;;;4.10;0.90;;;;;;;22.79;100.00;100329.88;6275047;28;20437;-73
2023/07/29 13:58:02;;;;;;;1.17;0.60;;;;;;;23.18;100.00;100313.03;6275255;28;20353;-73
2023/07/29 14:01:04;;;;;;;2.00;0.80;;;;;;;23.65;100.00;100314.81;6268615;28;20050;-74
2023/07/29 14:04:05;;;;;;;0.65;0.60;;;;;;;23.65;100.00;100314.00;6274984;28;20056;-73
2023/07/29 14:07:07;;;;;;;0.57;0.57;;;;;;;23.32;100.00;100318.69;6274929;28;20049;-74